createdAt,value
2023-02-25T00:02:04.021Z,3.58
2023-02-25T00:06:05.588Z,3.64
2023-02-25T00:10:06.473Z,3.62
2023-02-25T00:14:09.906Z,3.49
2023-02-25T00:18:10.511Z,3.42
2023-02-25T00:22:11.690Z,3.50
2023-02-25T00:26:16.502Z,3.63
2023-02-25T00:30:20.999Z,3.62
2023-02-25T00:34:21.426Z,3.58
2023-02-25T00:38:23.029Z,3.70
2023-02-25T00:42:26.647Z,3.59
2023-02-25T00:46:32.376Z,3.60
2023-02-25T00:50:33.576Z,3.55
2023-02-25T00:54:34.221Z,3.44
2023-02-25T00:58:39.852Z,3.43
2023-02-25T01:02:43.291Z,3.48
2023-02-25T01:06:44.664Z,3.30
2023-02-25T01:10:45.679Z,3.28
2023-02-25T01:14:46.281Z,3.33
2023-02-25T01:18:50.660Z,3.22
2023-02-25T01:22:51.776Z,3.20
2023-02-25T01:26:55.733Z,3.15
2023-02-25T01:30:56.343Z,3.22
2023-02-25T01:35:01.345Z,3.08
2023-02-25T01:39:05.093Z,3.27
2023-02-25T01:43:08.035Z,3.35
2023-02-25T01:47:10.420Z,3.31
2023-02-25T01:51:16.117Z,3.30
2023-02-25T01:55:17.168Z,3.32
2023-02-25T01:59:20.000Z,3.27
2023-02-25T02:03:20.602Z,3.27
2023-02-25T02:07:26.509Z,3.29
2023-02-25T02:11:26.922Z,3.26
2023-02-25T02:15:28.239Z,3.38
2023-02-25T02:19:46.858Z,3.40
2023-02-25T02:24:42.432Z,3.46
2023-02-25T02:29:23.481Z,3.38
2023-02-25T02:33:38.900Z,3.34
2023-02-25T02:37:50.313Z,3.57
2023-02-25T02:42:02.478Z,3.67
2023-02-25T02:46:11.726Z,3.67
2023-02-25T02:50:26.919Z,3.85
2023-02-25T02:54:34.516Z,3.76
2023-02-25T02:58:40.955Z,4.01
2023-02-25T03:02:45.311Z,3.83
2023-02-25T03:06:54.259Z,3.69
2023-02-25T03:10:55.756Z,3.55
2023-02-25T03:14:56.403Z,3.60
2023-02-25T03:19:05.876Z,3.32
2023-02-25T03:23:15.631Z,3.45
2023-02-25T03:27:35.111Z,3.24
2023-02-25T03:31:48.642Z,3.24
2023-02-25T03:35:52.935Z,3.27
2023-02-25T03:40:07.490Z,3.17
2023-02-25T03:44:15.814Z,2.95
2023-02-25T03:48:19.919Z,2.96
2023-02-25T03:52:28.245Z,3.11
2023-02-25T03:56:46.235Z,2.97
2023-02-25T04:00:50.662Z,3.06
2023-02-25T04:04:51.381Z,3.23
2023-02-25T04:08:53.569Z,3.29
2023-02-25T04:12:56.743Z,3.23
2023-02-25T04:16:57.187Z,3.30
2023-02-25T04:20:58.261Z,3.12
2023-02-25T04:24:58.790Z,3.16
2023-02-25T04:29:02.618Z,3.24
2023-02-25T04:33:03.059Z,3.09
2023-02-25T04:37:05.835Z,3.34
2023-02-25T04:41:06.380Z,3.20
2023-02-25T04:45:12.599Z,3.25
2023-02-25T04:49:13.841Z,3.27
2023-02-25T04:53:14.328Z,3.54
2023-02-25T04:57:15.610Z,3.85
2023-02-25T05:01:19.217Z,3.69
2023-02-25T05:05:21.327Z,3.70
2023-02-25T05:09:21.942Z,3.65
2023-02-25T05:13:23.601Z,3.57
2023-02-25T05:17:26.862Z,3.49
2023-02-25T05:21:29.767Z,3.49
2023-02-25T05:25:30.238Z,3.53
2023-02-25T05:29:30.771Z,3.45
2023-02-25T05:33:34.386Z,3.38
2023-02-25T05:37:35.582Z,3.34
2023-02-25T05:41:35.938Z,3.00
2023-02-25T05:45:36.468Z,2.92
2023-02-25T05:49:39.756Z,2.98
2023-02-25T05:53:40.893Z,2.94
2023-02-25T05:57:41.850Z,3.13
2023-02-25T06:01:42.586Z,2.71
2023-02-25T06:05:48.064Z,2.61
2023-02-25T06:09:48.962Z,2.66
2023-02-25T06:13:52.960Z,2.83
2023-02-25T06:17:53.824Z,2.93
2023-02-25T06:21:57.145Z,3.02
2023-02-25T06:25:59.739Z,3.20
2023-02-25T06:30:03.036Z,3.18
2023-02-25T06:34:06.343Z,3.24
2023-02-25T06:38:09.509Z,3.34
2023-02-25T06:42:10.022Z,3.17
2023-02-25T06:46:14.934Z,3.45
2023-02-25T06:50:16.124Z,3.23
2023-02-25T06:54:20.144Z,3.16
2023-02-25T06:58:20.716Z,3.09
2023-02-25T07:02:20.994Z,3.12
2023-02-25T07:06:22.361Z,3.08
2023-02-25T07:10:25.884Z,3.12
2023-02-25T07:14:26.912Z,3.23
2023-02-25T07:18:27.500Z,3.04
2023-02-25T07:22:28.087Z,2.97
2023-02-25T07:26:31.178Z,3.39
2023-02-25T07:30:31.874Z,3.37
2023-02-25T07:34:32.582Z,3.36
2023-02-25T07:38:33.142Z,3.47
2023-02-25T07:42:37.228Z,3.49
2023-02-25T07:46:41.195Z,3.54
2023-02-25T07:50:41.667Z,3.36
2023-02-25T07:54:42.283Z,2.76
2023-02-25T07:58:46.104Z,3.79
2023-02-25T08:02:47.881Z,3.90
2023-02-25T08:06:48.941Z,3.97
2023-02-25T08:10:49.519Z,4.23
2023-02-25T08:14:52.563Z,3.89
2023-02-25T08:18:53.152Z,4.01
2023-02-25T08:22:57.286Z,3.80
2023-02-25T08:26:57.773Z,4.20
2023-02-25T08:31:03.201Z,4.07
2023-02-25T08:35:04.528Z,4.32
2023-02-25T08:39:05.413Z,4.47
2023-02-25T08:43:05.971Z,4.85
2023-02-25T08:47:09.499Z,5.29
2023-02-25T08:51:15.002Z,5.37
2023-02-25T08:55:16.247Z,4.85
2023-02-25T08:59:18.689Z,4.37
2023-02-25T09:03:22.407Z,5.02
2023-02-25T09:07:23.729Z,5.16
2023-02-25T09:11:26.555Z,4.59
2023-02-25T09:15:27.613Z,4.79
2023-02-25T09:19:31.279Z,4.90
2023-02-25T09:23:32.135Z,5.33
2023-02-25T09:27:32.848Z,5.27
2023-02-25T09:31:37.291Z,5.97
2023-02-25T09:35:41.049Z,5.72
2023-02-25T09:39:43.234Z,5.87
2023-02-25T09:43:46.901Z,5.89
2023-02-25T09:47:55.896Z,5.79
2023-02-25T09:52:06.379Z,5.65
2023-02-25T09:56:11.263Z,5.56
2023-02-25T10:00:23.851Z,5.76
2023-02-25T10:04:35.362Z,5.49
2023-02-25T10:08:51.075Z,5.60
2023-02-25T10:13:05.208Z,5.69
2023-02-25T10:17:19.283Z,5.82
2023-02-25T10:21:35.348Z,5.78
2023-02-25T10:25:47.533Z,5.59
2023-02-25T10:29:52.893Z,5.90
2023-02-25T10:33:57.016Z,6.11
2023-02-25T10:37:57.964Z,5.91
2023-02-25T10:42:01.883Z,5.83
2023-02-25T10:46:11.529Z,6.29
2023-02-25T10:50:20.428Z,6.41
2023-02-25T10:54:20.703Z,6.08
2023-02-25T10:58:40.958Z,5.85
2023-02-25T11:02:47.055Z,5.65
2023-02-25T11:06:49.454Z,5.65
2023-02-25T11:11:07.729Z,6.08
2023-02-25T11:15:44.805Z,5.80
2023-02-25T11:19:57.740Z,5.53
2023-02-25T11:24:04.136Z,5.75
2023-02-25T11:28:09.865Z,5.90
2023-02-25T11:32:21.239Z,6.45
2023-02-25T11:36:27.030Z,6.36
2023-02-25T11:40:32.062Z,7.42
2023-02-25T11:44:45.667Z,7.36
2023-02-25T11:48:56.091Z,7.37
2023-02-25T11:53:10.056Z,7.72
2023-02-25T11:57:21.115Z,7.13
2023-02-25T12:01:37.749Z,6.41
2023-02-25T12:06:04.052Z,5.48
2023-02-25T12:10:58.781Z,4.81
2023-02-25T12:15:52.854Z,5.36
2023-02-25T12:20:34.922Z,5.61
2023-02-25T12:25:14.428Z,5.67
2023-02-25T12:29:52.088Z,5.50
2023-02-25T12:34:23.752Z,4.36
2023-02-25T12:39:12.082Z,3.33
2023-02-25T12:43:36.613Z,3.10
2023-02-25T12:48:04.661Z,3.47
2023-02-25T12:52:36.575Z,3.84
2023-02-25T12:57:17.463Z,4.53
2023-02-25T13:01:53.496Z,5.98
2023-02-25T13:12:11.632Z,6.50
2023-02-25T13:16:32.814Z,6.34
2023-02-25T13:21:40.797Z,5.38
2023-02-25T13:26:49.063Z,4.02
2023-02-25T13:31:07.237Z,3.46
2023-02-25T13:35:35.501Z,3.14
2023-02-25T13:40:08.375Z,3.02
2023-02-25T13:44:36.014Z,2.97
2023-02-25T13:49:22.850Z,2.92
2023-02-25T13:53:59.717Z,2.69
2023-02-25T13:58:28.817Z,2.72
2023-02-25T14:03:30.141Z,2.82
2023-02-25T14:07:56.132Z,2.80
2023-02-25T14:12:13.144Z,2.88
2023-02-25T14:16:34.750Z,3.24
2023-02-25T14:20:49.197Z,4.40
2023-02-25T14:25:05.478Z,6.32
2023-02-25T14:29:28.288Z,6.71
2023-02-25T14:34:18.544Z,6.11
2023-02-25T14:38:29.994Z,6.03
2023-02-25T14:43:06.250Z,5.32
2023-02-25T14:47:18.296Z,4.46
2023-02-25T14:51:50.282Z,4.18
2023-02-25T14:56:35.840Z,4.05
2023-02-25T15:01:01.832Z,3.94
2023-02-25T15:05:50.252Z,3.97
2023-02-25T15:10:20.546Z,4.10
2023-02-25T15:15:22.691Z,4.09
2023-02-25T15:19:58.478Z,4.09
2023-02-25T15:24:00.201Z,3.89
2023-02-25T15:28:02.745Z,3.87
2023-02-25T15:32:24.555Z,3.60
2023-02-25T15:36:45.090Z,3.47
2023-02-25T15:40:51.895Z,3.23
2023-02-25T15:44:53.772Z,3.21
2023-02-25T15:49:10.417Z,3.28
2023-02-25T15:53:36.028Z,3.35
2023-02-25T15:57:42.057Z,3.43
2023-02-25T16:01:46.518Z,3.34
2023-02-25T16:05:49.893Z,3.30
2023-02-25T16:10:01.559Z,3.20
2023-02-25T16:14:05.871Z,3.10
2023-02-25T16:18:23.393Z,3.12
2023-02-25T16:22:31.203Z,3.03
2023-02-25T16:26:47.891Z,2.90
2023-02-25T16:31:00.230Z,2.66
2023-02-25T16:35:12.620Z,2.53
2023-02-25T16:39:21.805Z,2.43
2023-02-25T16:43:30.194Z,2.30
2023-02-25T16:47:35.829Z,2.18
2023-02-25T16:51:41.502Z,2.00
2023-02-25T16:55:43.851Z,1.99
2023-02-25T16:59:47.508Z,1.83
2023-02-25T17:03:49.531Z,1.86
2023-02-25T17:07:59.841Z,1.85
2023-02-25T17:12:03.030Z,1.90
2023-02-25T17:16:08.804Z,2.00
2023-02-25T17:20:18.331Z,2.06
2023-02-25T17:24:24.114Z,2.14
2023-02-25T17:28:28.009Z,2.05
2023-02-25T17:32:35.271Z,1.96
2023-02-25T17:36:41.383Z,2.00
2023-02-25T17:40:42.616Z,1.95
2023-02-25T17:44:49.567Z,1.78
2023-02-25T17:48:59.631Z,1.66
2023-02-25T17:53:01.254Z,1.75
2023-02-25T17:57:05.046Z,1.76
2023-02-25T18:01:06.030Z,1.77
2023-02-25T18:05:28.754Z,1.67
2023-02-25T18:09:41.599Z,1.67
2023-02-25T18:13:42.304Z,1.65
2023-02-25T18:17:46.064Z,1.63
2023-02-25T18:21:50.215Z,1.51
2023-02-25T18:26:13.090Z,1.59
2023-02-25T18:30:25.058Z,1.67
2023-02-25T18:34:25.841Z,1.70
2023-02-25T18:38:33.312Z,1.62
2023-02-25T18:42:33.699Z,1.72
2023-02-25T18:46:34.352Z,1.63
2023-02-25T18:50:37.585Z,1.52
2023-02-25T18:54:41.791Z,1.53
2023-02-25T18:58:43.268Z,1.52
2023-02-25T19:02:53.970Z,1.37
2023-02-25T19:06:54.667Z,1.23
2023-02-25T19:10:58.469Z,1.24
2023-02-25T19:15:02.767Z,1.35
2023-02-25T19:19:03.124Z,1.33
2023-02-25T19:23:04.723Z,1.29
2023-02-25T19:27:08.146Z,1.11
2023-02-25T19:31:10.064Z,1.26
2023-02-25T19:35:12.297Z,1.23
2023-02-25T19:39:12.985Z,1.15
2023-02-25T19:43:18.623Z,1.22
2023-02-25T19:47:19.030Z,1.11
2023-02-25T19:51:19.528Z,1.16
2023-02-25T19:55:20.789Z,1.24
2023-02-25T19:59:24.622Z,1.11
2023-02-25T20:03:25.366Z,1.07
2023-02-25T20:07:26.499Z,1.14
2023-02-25T20:11:27.297Z,1.15
2023-02-25T20:15:31.055Z,1.17
2023-02-25T20:19:33.125Z,1.17
2023-02-25T20:23:34.513Z,1.15
2023-02-25T20:27:37.201Z,1.05
2023-02-25T20:31:40.485Z,1.02
2023-02-25T20:35:41.942Z,1.11
2023-02-25T20:39:56.624Z,1.18
2023-02-25T20:43:57.519Z,1.13
2023-02-25T20:48:03.578Z,0.98
2023-02-25T20:52:04.990Z,1.04
2023-02-25T20:56:06.134Z,1.00
2023-02-25T21:00:16.520Z,1.00
2023-02-25T21:04:20.130Z,0.94
2023-02-25T21:08:20.881Z,0.75
2023-02-25T21:12:21.724Z,0.92
2023-02-25T21:16:24.188Z,0.89
2023-02-25T21:20:30.189Z,0.93
2023-02-25T21:24:33.888Z,0.88
2023-02-25T21:28:35.336Z,0.85
2023-02-25T21:32:35.916Z,0.65
2023-02-25T21:36:39.662Z,0.74
2023-02-25T21:40:40.232Z,0.65
2023-02-25T21:44:40.596Z,0.51
2023-02-25T21:48:42.828Z,0.44
2023-02-25T21:52:45.870Z,0.44
2023-02-25T21:56:46.598Z,0.43
2023-02-25T22:00:47.086Z,0.37
2023-02-25T22:04:50.083Z,0.31
2023-02-25T22:08:54.592Z,0.08
2023-02-25T22:12:55.793Z,0.25
2023-02-25T22:16:56.470Z,0.22
2023-02-25T22:21:05.678Z,0.22
2023-02-25T22:25:10.116Z,0.02
2023-02-25T22:29:12.482Z,0.06
2023-02-25T22:33:13.296Z,0.11
2023-02-25T22:37:13.991Z,0.11
2023-02-25T22:41:20.872Z,-0.03
2023-02-25T22:45:21.642Z,-0.17
2023-02-25T22:49:22.415Z,-0.31
2023-02-25T22:53:22.722Z,-0.36
2023-02-25T22:57:25.991Z,-0.49
2023-02-25T23:01:29.000Z,-0.54
2023-02-25T23:05:29.559Z,-0.68
2023-02-25T23:09:30.237Z,-0.78
2023-02-25T23:13:33.517Z,-0.94
2023-02-25T23:17:34.418Z,-1.01
2023-02-25T23:21:39.288Z,-1.00
2023-02-25T23:25:43.776Z,-1.04
2023-02-25T23:29:46.873Z,-1.04
2023-02-25T23:33:47.280Z,-0.94
2023-02-25T23:37:48.274Z,-0.84
2023-02-25T23:46:12.547Z,-0.84
2023-02-25T23:50:16.083Z,-0.81
2023-02-25T23:54:20.913Z,-0.86
2023-02-25T23:58:21.523Z,-0.85
